Time;durP1;ratioP1;P1;durP2;ratioP2;P2;SDS_P1;SDS_P2;PMS_P1;PMS_P2;Temp;Humidity;BMP_temperature;BMP_pressure;BME280_temperature;BME280_humidity;BME280_pressure;Samples;Min_cycle;Max_cycle;Signal;HPM_P1;HPM_P2
2022/03/21 00:01:11;;;;;;;61.10;25.93;;;;;;;12.27;39.20;103005.31;5027628;28;20033;-70
2022/03/21 00:03:37;;;;;;;56.03;25.92;;;;;;;11.76;40.21;103014.84;5029162;28;20461;-71
2022/03/21 00:06:02;;;;;;;63.27;27.23;;;;;;;12.05;40.48;103014.53;5062105;28;20107;-72
2022/03/21 00:08:28;;;;;;;58.53;26.20;;;;;;;13.01;38.47;103017.00;5061552;28;20052;-71
2022/03/21 00:10:55;;;;;;;64.80;25.80;;;;;;;12.81;38.65;103018.44;5029897;28;20025;-71
2022/03/21 00:13:22;;;;;;;59.67;25.13;;;;;;;12.17;39.80;103019.09;5045447;28;20083;-71
2022/03/21 00:15:49;;;;;;;62.77;27.43;;;;;;;12.47;38.89;103020.50;5028365;28;20057;-71
2022/03/21 00:18:15;;;;;;;61.37;24.73;;;;;;;12.67;38.82;103018.22;5061387;28;20028;-71
2022/03/21 00:20:46;;;;;;;65.23;26.20;;;;;;;12.43;39.21;103018.69;5028990;28;20053;-71
2022/03/21 00:23:12;;;;;;;56.30;24.70;;;;;;;11.64;40.57;103023.31;5060994;28;20068;-71
2022/03/21 00:25:37;;;;;;;65.13;25.07;;;;;;;12.15;40.20;103021.72;5028964;28;20025;-71
2022/03/21 00:28:05;;;;;;;60.03;26.30;;;;;;;13.18;37.83;103018.97;5028546;28;20503;-72
2022/03/21 00:30:30;;;;;;;58.93;25.83;;;;;;;12.48;38.93;103022.28;5028478;28;20026;-71
2022/03/21 00:32:56;;;;;;;60.37;25.73;;;;;;;12.34;40.10;103025.53;5028504;28;20076;-71
2022/03/21 00:35:22;;;;;;;58.17;25.53;;;;;;;13.08;37.93;103017.97;5030329;28;20029;-71
2022/03/21 00:37:48;;;;;;;59.87;25.20;;;;;;;12.43;39.01;103023.94;5033194;28;20018;-71
2022/03/21 00:40:16;;;;;;;63.10;26.80;;;;;;;13.00;38.20;103017.84;5033164;28;20033;-72
2022/03/21 00:42:43;;;;;;;63.80;24.63;;;;;;;12.20;39.76;103019.19;5032415;28;20463;-71
2022/03/21 00:45:11;;;;;;;61.97;27.37;;;;;;;11.75;40.25;103014.81;5047565;28;20029;-71
2022/03/21 00:47:37;;;;;;;63.90;27.57;;;;;;;12.52;39.13;103021.47;5065705;28;20025;-71
2022/03/21 00:50:04;;;;;;;61.00;26.43;;;;;;;13.06;38.21;103014.44;5032586;28;20028;-72
2022/03/21 00:52:30;;;;;;;60.37;26.30;;;;;;;11.51;40.41;103010.81;5032190;28;20017;-71
2022/03/21 00:54:56;;;;;;;55.23;23.93;;;;;;;12.85;38.55;103010.63;5031925;28;20338;-72
2022/03/21 00:57:21;;;;;;;67.47;29.03;;;;;;;11.59;40.52;103024.94;5031322;28;20026;-72
2022/03/21 00:59:47;;;;;;;63.80;26.90;;;;;;;11.66;40.71;103016.41;5032138;28;20104;-71
2022/03/21 01:02:12;;;;;;;55.07;25.40;;;;;;;11.48;40.59;103018.63;5031231;28;20049;-71
2022/03/21 01:04:38;;;;;;;68.87;28.10;;;;;;;12.81;38.55;103015.81;5032838;28;20056;-71
2022/03/21 01:07:05;;;;;;;59.83;25.73;;;;;;;13.05;37.43;103021.44;5031705;28;20021;-71
2022/03/21 01:09:30;;;;;;;61.93;27.67;;;;;;;13.32;37.21;103022.66;5033719;28;20029;-71
2022/03/21 01:11:56;;;;;;;62.00;27.80;;;;;;;12.89;37.34;103024.69;5031111;28;20612;-71
2022/03/21 01:14:22;;;;;;;70.43;27.87;;;;;;;13.25;37.33;103026.06;5031714;28;20022;-71
2022/03/21 01:16:47;;;;;;;59.30;26.43;;;;;;;12.94;37.90;103025.66;5032830;28;20036;-71
2022/03/21 01:19:12;;;;;;;61.23;26.27;;;;;;;12.97;37.84;103030.03;5030629;28;20056;-72
2022/03/21 01:21:38;;;;;;;61.60;27.33;;;;;;;13.19;37.39;103028.63;5031562;28;20053;-71
2022/03/21 01:24:03;;;;;;;56.83;25.67;;;;;;;13.12;37.48;103032.00;5031500;28;20028;-71
2022/03/21 01:26:29;;;;;;;66.07;27.33;;;;;;;12.42;38.74;103030.03;5031058;28;20029;-71
2022/03/21 01:28:56;;;;;;;56.20;24.57;;;;;;;12.91;38.16;103030.84;5064319;28;20104;-72
2022/03/21 01:31:22;;;;;;;64.03;27.50;;;;;;;12.50;38.36;103028.44;5032726;28;20026;-72
2022/03/21 01:33:47;;;;;;;71.37;28.40;;;;;;;12.41;39.01;103033.53;5064243;28;20036;-71
2022/03/21 01:36:12;;;;;;;63.30;25.93;;;;;;;13.33;37.23;103034.06;5032370;28;20025;-72
2022/03/21 01:38:38;;;;;;;56.17;25.43;;;;;;;13.34;37.28;103030.56;5031383;28;20500;-72
2022/03/21 01:41:03;;;;;;;59.17;26.27;;;;;;;13.12;37.50;103037.25;5063870;28;20041;-71
2022/03/21 01:43:29;;;;;;;58.77;25.23;;;;;;;12.89;37.81;103032.56;5030829;28;20024;-71
2022/03/21 01:45:54;;;;;;;57.63;24.73;;;;;;;12.59;38.72;103039.09;5031180;28;20037;-72
2022/03/21 01:48:19;;;;;;;65.93;27.93;;;;;;;12.80;38.23;103037.66;5063173;28;20052;-71
2022/03/21 01:50:45;;;;;;;61.23;26.03;;;;;;;12.16;38.87;103041.84;5031290;28;20435;-72
2022/03/21 01:55:59;;;;;;;61.53;27.77;;;;;;;12.48;39.02;103040.66;5032376;28;20036;-72
2022/03/21 01:58:25;;;;;;;61.70;27.40;;;;;;;12.50;39.04;103039.81;5030784;28;20555;-72
2022/03/21 02:00:51;;;;;;;57.47;26.43;;;;;;;11.69;40.14;103042.66;5030488;28;20488;-72
2022/03/21 02:03:19;;;;;;;68.60;28.27;;;;;;;11.85;39.66;103043.81;5063755;28;20071;-71
2022/03/21 02:05:47;;;;;;;61.80;27.57;;;;;;;11.98;39.71;103045.00;5030974;28;20032;-71
2022/03/21 02:08:13;;;;;;;59.10;26.07;;;;;;;12.53;38.41;103044.25;5029515;28;20503;-72
2022/03/21 02:10:42;;;;;;;62.30;26.67;;;;;;;12.84;37.97;103039.47;5030804;28;20139;-72
2022/03/21 02:13:08;;;;;;;57.27;26.13;;;;;;;12.36;38.64;103042.22;5030296;28;20056;-71
2022/03/21 02:15:34;;;;;;;64.43;27.93;;;;;;;11.62;39.72;103046.00;5046560;28;20031;-72
2022/03/21 02:18:02;;;;;;;62.87;26.73;;;;;;;11.96;39.60;103046.69;5063876;28;20112;-72
2022/03/21 02:20:31;;;;;;;60.10;24.83;;;;;;;12.27;38.86;103042.03;5031790;28;20049;-72
2022/03/21 02:23:08;;;;;;;67.23;26.00;;;;;;;12.62;38.07;103047.00;5029720;28;20429;-72
2022/03/21 02:25:35;;;;;;;60.07;26.40;;;;;;;12.62;37.97;103044.38;5063464;28;20482;-72
2022/03/21 02:28:04;;;;;;;59.57;25.37;;;;;;;12.83;37.46;103042.94;5030226;28;20029;-72
2022/03/21 02:30:34;;;;;;;59.17;25.30;;;;;;;12.48;38.18;103040.66;5046146;28;20133;-73
2022/03/21 02:33:01;;;;;;;58.17;23.93;;;;;;;12.46;38.54;103047.59;5063324;28;20032;-72
2022/03/21 02:35:28;;;;;;;58.37;24.47;;;;;;;13.38;36.51;103043.81;5029078;28;20488;-72
2022/03/21 02:37:55;;;;;;;54.40;24.20;;;;;;;13.29;36.53;103048.91;5063274;28;20025;-72
2022/03/21 02:40:21;;;;;;;58.50;23.83;;;;;;;12.70;37.69;103048.00;5063124;28;20481;-72
2022/03/21 02:42:46;;;;;;;59.57;27.03;;;;;;;13.12;37.04;103046.03;5029468;28;20056;-72
2022/03/21 02:45:12;;;;;;;63.47;25.83;;;;;;;12.86;37.45;103043.03;5062605;28;20072;-72
2022/03/21 02:47:37;;;;;;;59.87;27.03;;;;;;;12.78;38.08;103045.53;5030064;28;20481;-72
2022/03/21 02:50:04;;;;;;;65.23;26.80;;;;;;;13.01;37.03;103042.34;5029049;28;20115;-72
2022/03/21 02:52:30;;;;;;;66.10;26.07;;;;;;;13.20;36.73;103051.38;5063087;28;20021;-73
2022/03/21 02:54:56;;;;;;;60.33;26.60;;;;;;;12.14;38.81;103051.41;5029790;28;20024;-73
2022/03/21 02:57:21;;;;;;;58.30;26.37;;;;;;;13.13;37.25;103052.16;5030206;28;20036;-73
2022/03/21 02:59:47;;;;;;;58.97;25.07;;;;;;;11.85;39.49;103058.66;5030340;28;20366;-73
2022/03/21 03:02:12;;;;;;;62.20;26.37;;;;;;;12.48;37.95;103056.38;5029081;28;20028;-73
2022/03/21 03:04:37;;;;;;;63.50;25.43;;;;;;;12.10;39.16;103064.44;5029146;28;20029;-72
2022/03/21 03:07:03;;;;;;;60.53;25.70;;;;;;;12.80;37.60;103059.53;5062614;28;20497;-73
2022/03/21 03:09:28;;;;;;;58.33;26.50;;;;;;;12.14;38.82;103061.88;5029429;28;20387;-73
2022/03/21 03:11:54;;;;;;;67.83;27.80;;;;;;;12.30;38.92;103065.69;5030120;28;20044;-73
2022/03/21 03:14:19;;;;;;;70.07;27.30;;;;;;;12.46;38.27;103064.22;5029152;28;20516;-73
2022/03/21 03:16:45;;;;;;;70.50;27.17;;;;;;;12.04;39.15;103066.06;5029567;28;20029;-73
2022/03/21 03:19:10;;;;;;;63.73;26.60;;;;;;;11.48;40.52;103068.38;5028425;28;20110;-72
2022/03/21 03:21:44;;;;;;;66.63;26.87;;;;;;;11.93;39.52;103072.81;5062543;28;20062;-73
2022/03/21 03:24:10;;;;;;;59.77;26.00;;;;;;;10.92;41.54;103077.59;5028998;28;20031;-73
2022/03/21 03:26:36;;;;;;;65.17;27.23;;;;;;;10.93;41.18;103076.72;5029034;28;20025;-73
2022/03/21 03:29:02;;;;;;;61.47;25.47;;;;;;;11.54;39.87;103073.75;5029193;28;20025;-73
2022/03/21 03:31:28;;;;;;;63.13;26.27;;;;;;;11.29;40.47;103070.59;5030661;28;20029;-73
2022/03/21 03:33:54;;;;;;;64.10;27.37;;;;;;;11.48;39.90;103068.38;5028469;28;20539;-72
2022/03/21 03:36:20;;;;;;;59.60;25.67;;;;;;;11.36;40.43;103074.22;5045512;28;20029;-72
2022/03/21 03:38:47;;;;;;;56.13;23.80;;;;;;;10.94;40.45;103081.13;5030156;28;20540;-72
2022/03/21 03:41:13;;;;;;;65.23;26.97;;;;;;;10.94;40.54;103077.63;5028800;28;20072;-73
2022/03/21 03:43:38;;;;;;;57.57;24.97;;;;;;;11.69;39.74;103078.41;5029247;28;20025;-73
2022/03/21 03:46:05;;;;;;;61.80;26.13;;;;;;;11.11;40.95;103078.00;5061881;28;20026;-73
2022/03/21 03:48:30;;;;;;;61.77;25.60;;;;;;;11.23;39.89;103078.28;5062408;28;20033;-73
2022/03/21 03:50:56;;;;;;;62.97;26.90;;;;;;;10.94;40.50;103081.13;5062381;28;20018;-72
2022/03/21 03:53:22;;;;;;;66.33;26.40;;;;;;;11.24;40.03;103085.31;5028210;28;20025;-72
2022/03/21 03:55:48;;;;;;;65.50;26.07;;;;;;;10.77;40.90;103083.31;5029130;28;20029;-73
2022/03/21 03:58:13;;;;;;;54.57;23.63;;;;;;;11.45;39.25;103079.66;5028668;28;20064;-73
2022/03/21 04:00:39;;;;;;;69.53;27.90;;;;;;;10.39;42.02;103080.59;5028591;28;20025;-73
2022/03/21 04:05:52;;;;;;;66.90;28.10;;;;;;;11.27;39.85;103074.91;5030549;28;20044;-73
2022/03/21 04:08:17;;;;;;;61.70;27.20;;;;;;;11.06;40.46;103074.41;5029076;28;20087;-73
2022/03/21 04:10:42;;;;;;;68.80;28.40;;;;;;;10.79;40.71;103084.22;5063547;28;20029;-73
2022/03/21 04:13:08;;;;;;;68.57;26.80;;;;;;;11.66;39.64;103076.66;5032494;28;20108;-73
2022/03/21 04:15:33;;;;;;;61.90;27.03;;;;;;;10.68;41.21;103083.09;5032199;28;20535;-73
2022/03/21 04:18:00;;;;;;;63.57;27.03;;;;;;;10.74;40.79;103083.22;5032330;28;20032;-73
2022/03/21 04:20:29;;;;;;;73.63;29.57;;;;;;;10.46;41.61;103081.66;5065865;28;20148;-73
2022/03/21 04:22:54;;;;;;;72.83;29.57;;;;;;;11.40;40.05;103081.28;5031835;28;20417;-73
2022/03/21 04:25:20;;;;;;;66.90;29.83;;;;;;;11.80;38.81;103082.16;5033747;28;20029;-73
2022/03/21 04:27:45;;;;;;;65.67;26.87;;;;;;;11.30;39.47;103074.97;5032667;28;20029;-73
2022/03/21 04:30:10;;;;;;;70.83;28.60;;;;;;;11.87;38.77;103085.81;5032623;28;20297;-72
2022/03/21 04:32:36;;;;;;;71.30;28.60;;;;;;;11.81;38.24;103086.53;5032720;28;20021;-73
2022/03/21 04:35:02;;;;;;;66.87;26.97;;;;;;;11.06;39.84;103084.88;5031482;28;20112;-73
2022/03/21 04:37:28;;;;;;;62.93;26.87;;;;;;;11.92;38.54;103086.75;5032565;28;20405;-73
2022/03/21 04:39:54;;;;;;;70.53;27.57;;;;;;;11.69;38.84;103089.81;5032217;28;20026;-73
2022/03/21 04:42:20;;;;;;;61.03;27.40;;;;;;;11.79;38.28;103092.63;5031382;28;20025;-73
2022/03/21 04:44:48;;;;;;;65.70;27.97;;;;;;;11.10;40.41;103102.41;5032240;28;20457;-73
2022/03/21 04:47:14;;;;;;;70.37;28.20;;;;;;;11.86;38.89;103102.38;5031741;28;20366;-73
2022/03/21 04:49:39;;;;;;;69.37;28.80;;;;;;;11.85;38.92;103096.22;5032663;28;20036;-72
2022/03/21 04:52:06;;;;;;;60.77;27.10;;;;;;;11.96;38.88;103099.09;5015505;28;20034;-73
2022/03/21 04:54:32;;;;;;;68.87;29.10;;;;;;;11.11;40.08;103098.94;5032382;28;20044;-73
2022/03/21 04:56:57;;;;;;;76.83;30.57;;;;;;;11.44;39.62;103100.59;5031200;28;20022;-73
2022/03/21 04:59:22;;;;;;;69.50;27.83;;;;;;;11.80;38.77;103094.38;5015309;28;20037;-73
2022/03/21 05:01:51;;;;;;;71.83;28.93;;;;;;;11.77;38.93;103096.94;5032113;28;20033;-73
2022/03/21 05:04:17;;;;;;;66.77;27.70;;;;;;;11.34;40.57;103096.88;5014670;28;20488;-73
2022/03/21 05:06:43;;;;;;;73.37;30.70;;;;;;;10.89;41.16;103103.66;5032361;28;20049;-73
2022/03/21 05:09:08;;;;;;;77.67;30.30;;;;;;;10.90;40.82;103099.31;5064906;28;20021;-73
2022/03/21 05:11:34;;;;;;;72.23;29.00;;;;;;;10.77;41.18;103104.25;5031250;28;20034;-73
2022/03/21 05:13:59;;;;;;;66.37;26.43;;;;;;;11.35;39.74;103096.91;5033050;28;20017;-73
2022/03/21 05:16:24;;;;;;;66.10;27.33;;;;;;;11.98;38.72;103100.03;5031870;28;20033;-73
2022/03/21 05:18:50;;;;;;;72.60;29.63;;;;;;;12.53;37.65;103101.97;5032737;28;20022;-73
2022/03/21 05:21:16;;;;;;;67.57;30.50;;;;;;;11.62;39.10;103103.63;5031318;28;20500;-73
2022/03/21 05:31:53;;;;;;;66.93;27.00;;;;;;;11.22;40.51;103102.69;5032044;28;20044;-73
2022/03/21 05:37:03;;;;;;;71.93;28.57;;;;;;;11.69;39.34;103105.53;5032857;28;20056;-73
2022/03/21 05:39:28;;;;;;;72.87;29.33;;;;;;;11.34;40.20;103108.22;5030121;28;20472;-73
2022/03/21 05:41:53;;;;;;;66.13;27.83;;;;;;;11.87;39.56;103110.25;5032464;28;20044;-73
2022/03/21 05:44:19;;;;;;;66.37;27.57;;;;;;;11.93;38.70;103114.75;5031173;28;20021;-73
2022/03/21 05:46:45;;;;;;;72.80;30.40;;;;;;;12.00;38.75;103121.91;5030863;28;20026;-73
2022/03/21 05:49:11;;;;;;;77.63;31.27;;;;;;;12.38;38.27;103116.53;5030618;28;20040;-73
2022/03/21 05:51:40;;;;;;;81.33;32.47;;;;;;;12.50;37.87;103117.63;5064624;28;20029;-73
2022/03/21 05:54:11;;;;;;;70.20;28.00;;;;;;;11.87;39.10;103120.75;5029822;28;20025;-73
2022/03/21 05:56:38;;;;;;;78.17;31.40;;;;;;;11.77;39.74;103117.88;5031519;28;20022;-73
2022/03/21 06:02:09;;;;;;;71.80;29.30;;;;;;;11.21;41.90;103135.00;5009431;28;20026;-73
2022/03/21 06:04:34;;;;;;;78.30;32.90;;;;;;;10.97;41.49;103133.50;5010109;28;20030;-73
2022/03/21 06:07:00;;;;;;;75.33;31.43;;;;;;;11.07;41.49;103128.53;5002395;28;20132;-73
2022/03/21 06:09:25;;;;;;;77.13;31.93;;;;;;;11.24;41.11;103132.44;5030685;28;20117;-72
2022/03/21 06:11:51;;;;;;;65.40;27.67;;;;;;;11.49;40.26;103135.63;5030997;28;20087;-72
2022/03/21 06:14:20;;;;;;;68.40;29.00;;;;;;;12.18;38.68;103139.75;5030066;28;20025;-73
2022/03/21 06:16:46;;;;;;;72.80;29.57;;;;;;;12.05;39.14;103135.13;5031928;28;20031;-72
2022/03/21 06:19:11;;;;;;;71.03;30.33;;;;;;;12.07;39.54;103145.63;5063514;28;20492;-72
2022/03/21 06:21:37;;;;;;;78.37;30.73;;;;;;;12.55;38.38;103147.44;5029992;28;20141;-72
2022/03/21 06:24:02;;;;;;;71.57;28.57;;;;;;;12.36;38.76;103141.88;5063589;28;20120;-72
2022/03/21 06:26:28;;;;;;;79.50;29.20;;;;;;;13.06;37.48;103150.94;5047030;28;20125;-73
2022/03/21 06:28:53;;;;;;;73.57;30.10;;;;;;;12.95;37.95;103153.41;5046151;28;20396;-72
2022/03/21 06:31:18;;;;;;;72.73;28.87;;;;;;;12.54;38.12;103150.91;5031480;28;20195;-73
2022/03/21 06:33:43;;;;;;;74.90;31.17;;;;;;;12.44;38.75;103154.22;5030491;28;20017;-72
2022/03/21 06:36:09;;;;;;;79.57;31.80;;;;;;;13.09;37.80;103155.38;5062314;28;20029;-73
2022/03/21 06:38:34;;;;;;;77.00;31.00;;;;;;;13.18;37.94;103159.03;5047064;28;20478;-73
2022/03/21 06:41:00;;;;;;;80.50;32.10;;;;;;;12.77;38.74;103163.59;5031408;28;20029;-73
2022/03/21 06:43:27;;;;;;;78.27;31.50;;;;;;;12.99;38.00;103168.34;5030665;28;20022;-73
2022/03/21 06:45:56;;;;;;;79.13;31.00;;;;;;;13.56;36.99;103171.03;5063330;28;20052;-73
2022/03/21 06:48:23;;;;;;;67.63;29.23;;;;;;;12.94;37.96;103167.41;5063305;28;20133;-73
2022/03/21 06:50:51;;;;;;;77.83;32.20;;;;;;;13.70;36.89;103171.25;5029544;28;20025;-73
2022/03/21 06:53:18;;;;;;;86.70;32.13;;;;;;;13.70;37.05;103172.09;5029542;28;20067;-73
2022/03/21 06:55:44;;;;;;;79.23;30.93;;;;;;;13.61;36.57;103169.34;5062841;28;20068;-72
2022/03/21 06:58:12;;;;;;;72.53;30.43;;;;;;;14.04;36.53;103171.66;5029406;28;20022;-72
2022/03/21 07:00:41;;;;;;;79.20;32.93;;;;;;;13.65;37.51;103172.91;5031199;28;20021;-73
2022/03/21 07:03:08;;;;;;;77.57;32.63;;;;;;;13.44;37.55;103170.84;5028422;28;20026;-72
2022/03/21 07:05:35;;;;;;;77.13;32.10;;;;;;;13.24;38.41;103176.63;5029838;28;20021;-72
2022/03/21 07:08:00;;;;;;;74.90;31.97;;;;;;;13.06;39.02;103180.75;5029696;28;20048;-72
2022/03/21 07:10:26;;;;;;;79.77;32.53;;;;;;;13.58;38.08;103171.94;5028797;28;20029;-72
2022/03/21 07:12:51;;;;;;;77.90;30.50;;;;;;;13.79;37.48;103180.97;5030848;28;20075;-73
2022/03/21 07:15:17;;;;;;;67.57;30.10;;;;;;;13.81;37.80;103179.28;5062928;28;20477;-73
2022/03/21 07:17:42;;;;;;;78.37;32.93;;;;;;;13.17;38.66;103188.78;5029187;28;20136;-73
2022/03/21 07:20:10;;;;;;;83.10;32.63;;;;;;;13.84;37.91;103190.69;5028925;28;20049;-73
2022/03/21 07:22:35;;;;;;;69.90;28.93;;;;;;;11.75;41.92;103196.47;5031231;28;20017;-72
2022/03/21 07:25:01;;;;;;;74.63;31.73;;;;;;;12.44;40.72;103190.97;5029937;28;20100;-73
2022/03/21 07:27:26;;;;;;;70.93;32.17;;;;;;;11.50;42.64;103208.13;5029064;28;20036;-73
2022/03/21 07:29:51;;;;;;;69.13;31.57;;;;;;;13.40;39.52;103199.69;5029399;28;20099;-72
2022/03/21 07:32:17;;;;;;;72.67;29.30;;;;;;;12.92;39.42;103205.84;5030075;28;20033;-72
2022/03/21 07:34:43;;;;;;;75.33;32.27;;;;;;;13.00;39.38;103206.88;5063082;28;20403;-72
2022/03/21 07:37:08;;;;;;;67.83;31.13;;;;;;;13.11;39.92;103207.06;5028974;28;20120;-73
2022/03/21 07:39:35;;;;;;;66.80;31.60;;;;;;;12.85;39.99;103206.59;5028676;28;20021;-72
2022/03/21 07:42:02;;;;;;;76.77;31.07;;;;;;;11.87;41.95;103208.97;5028974;28;20192;-72
2022/03/21 07:47:20;;;;;;;68.80;29.93;;;;;;;13.04;39.39;103219.19;5029854;28;20255;-72
2022/03/21 07:49:46;;;;;;;74.60;31.13;;;;;;;12.88;40.98;103215.41;5029581;28;20056;-72
2022/03/21 07:52:12;;;;;;;69.10;30.20;;;;;;;13.55;39.51;103208.69;5044270;28;20467;-72
2022/03/21 07:54:37;;;;;;;67.30;30.97;;;;;;;13.64;39.22;103207.94;5030613;28;20113;-72
2022/03/21 07:57:04;;;;;;;69.97;29.63;;;;;;;15.42;37.13;103203.78;5062400;28;20108;-73
2022/03/21 07:59:30;;;;;;;69.37;31.43;;;;;;;16.68;35.31;103207.94;5028382;28;20535;-72
2022/03/21 08:01:57;;;;;;;70.53;30.03;;;;;;;17.87;32.76;103207.91;5028679;28;20503;-73
2022/03/21 08:04:23;;;;;;;63.60;27.63;;;;;;;19.69;29.91;103195.25;5062262;28;20029;-73
2022/03/21 08:06:48;;;;;;;56.83;28.20;;;;;;;19.21;30.23;103194.84;5028656;28;20473;-72
2022/03/21 08:09:13;;;;;;;59.43;26.90;;;;;;;20.56;28.60;103199.47;5029853;28;20538;-72
2022/03/21 08:11:39;;;;;;;47.50;24.50;;;;;;;17.79;31.38;103202.66;5030436;28;20026;-73
2022/03/21 08:14:05;;;;;;;49.63;25.57;;;;;;;19.18;30.58;103206.34;5061288;28;20277;-71
2022/03/21 08:16:30;;;;;;;51.53;24.13;;;;;;;19.01;29.66;103219.72;5029271;28;20116;-72
2022/03/21 08:18:55;;;;;;;58.53;27.63;;;;;;;19.40;30.42;103207.03;5062271;28;20022;-72
2022/03/21 08:21:21;;;;;;;50.47;25.70;;;;;;;21.17;27.49;103210.94;5028051;28;20045;-72
2022/03/21 08:23:49;;;;;;;48.77;24.97;;;;;;;20.80;27.83;103208.88;5028891;28;20113;-72
2022/03/21 08:26:16;;;;;;;56.25;26.73;;;;;;;21.22;27.55;103214.38;5030028;28;20033;-72
2022/03/21 08:28:45;;;;;;;52.92;26.35;;;;;;;21.44;26.80;103209.56;5061882;28;20028;-72
2022/03/21 08:31:12;;;;;;;46.65;24.15;;;;;;;22.41;25.72;103212.13;5028848;28;20033;-72
2022/03/21 08:33:38;;;;;;;50.67;25.52;;;;;;;22.39;26.02;103216.59;5028940;28;20401;-72
2022/03/21 08:36:03;;;;;;;42.63;24.00;;;;;;;23.61;24.48;103199.38;5061039;28;20021;-72
2022/03/21 08:38:29;;;;;;;43.00;23.67;;;;;;;24.21;23.77;103211.91;5045583;28;20392;-72
2022/03/21 08:40:56;;;;;;;45.28;24.27;;;;;;;24.47;22.77;103206.66;5028645;28;20025;-72
2022/03/21 08:43:25;;;;;;;37.50;22.27;;;;;;;24.90;22.57;103206.16;5028102;28;20021;-72
2022/03/21 08:45:54;;;;;;;39.42;23.02;;;;;;;24.39;22.83;103207.78;5029021;28;20635;-72
2022/03/21 08:49:23;;;;;;;36.20;21.98;;;;;;;24.78;22.59;103203.03;5029187;28;20025;-72
2022/03/21 08:51:04;;;;;;;38.40;22.25;;;;;;;24.41;23.22;103206.88;5029458;28;20127;-72
2022/03/21 08:53:30;;;;;;;37.08;22.42;;;;;;;24.27;23.36;103207.28;5028842;28;20041;-72
2022/03/21 08:55:55;;;;;;;35.50;20.42;;;;;;;24.56;23.07;103206.38;5029597;28;20021;-72
2022/03/21 08:58:20;;;;;;;34.25;20.65;;;;;;;25.07;22.52;103202.03;5046864;28;20032;-72
2022/03/21 09:00:47;;;;;;;34.67;20.33;;;;;;;24.72;23.01;103206.78;5032542;28;20057;-72
2022/03/21 09:03:12;;;;;;;37.22;21.40;;;;;;;22.92;24.41;103212.72;5032206;28;20106;-72
2022/03/21 09:05:38;;;;;;;35.55;20.38;;;;;;;22.14;26.10;103217.09;5033684;28;20072;-72
2022/03/21 09:08:03;;;;;;;33.65;18.83;;;;;;;22.59;26.44;103209.94;5032035;28;20021;-71
2022/03/21 09:10:29;;;;;;;40.50;20.30;;;;;;;22.92;25.16;103215.38;5032590;28;20025;-72
2022/03/21 09:12:54;;;;;;;39.95;20.52;;;;;;;21.46;27.30;103213.09;5031652;28;20021;-71
2022/03/21 09:15:20;;;;;;;34.13;20.02;;;;;;;23.76;24.73;103209.63;5031777;28;20061;-72
2022/03/21 09:17:45;;;;;;;33.75;18.92;;;;;;;24.47;24.05;103202.19;5014958;28;20112;-71
2022/03/21 09:20:13;;;;;;;36.92;19.08;;;;;;;25.33;22.68;103202.97;5047824;28;20295;-72
2022/03/21 09:22:38;;;;;;;36.75;18.15;;;;;;;26.69;22.01;103198.69;5047964;28;20474;-72
2022/03/21 09:25:05;;;;;;;26.63;16.52;;;;;;;24.95;22.79;103194.44;5030927;28;20020;-72
2022/03/21 09:27:30;;;;;;;28.60;17.23;;;;;;;26.00;22.56;103204.13;5031863;28;20030;-72
2022/03/21 09:29:56;;;;;;;33.03;17.25;;;;;;;26.71;21.53;103201.38;5032861;28;20044;-72
2022/03/21 09:32:22;;;;;;;26.20;15.82;;;;;;;25.10;23.14;103201.97;5030559;28;20017;-72
2022/03/21 09:34:48;;;;;;;29.13;16.80;;;;;;;26.44;22.03;103209.56;5032755;28;20025;-72
2022/03/21 09:37:14;;;;;;;29.90;17.98;;;;;;;26.90;21.74;103206.81;5032286;28;20052;-72
2022/03/21 09:39:40;;;;;;;33.85;17.52;;;;;;;27.25;20.95;103191.88;5030802;28;20029;-72
2022/03/21 09:42:05;;;;;;;28.67;17.15;;;;;;;27.05;20.70;103195.44;5032203;28;20029;-72
2022/03/21 09:44:31;;;;;;;28.45;17.67;;;;;;;28.08;20.33;103199.84;5032044;28;20076;-72
2022/03/21 09:46:59;;;;;;;28.83;16.20;;;;;;;26.11;20.56;103201.91;5064280;28;20029;-72
2022/03/21 09:49:28;;;;;;;28.65;16.20;;;;;;;27.24;19.99;103194.63;5032672;28;20476;-72
2022/03/21 09:51:54;;;;;;;26.05;15.00;;;;;;;27.47;20.09;103196.34;5063451;28;20121;-71
2022/03/21 09:54:20;;;;;;;26.35;16.00;;;;;;;27.19;19.94;103197.53;5031090;28;20080;-72
2022/03/21 09:56:45;;;;;;;26.58;15.48;;;;;;;28.30;19.31;103185.38;5064388;28;20030;-72
2022/03/21 09:59:11;;;;;;;24.63;13.82;;;;;;;26.62;20.17;103196.34;5029735;28;20359;-72
2022/03/21 10:01:41;;;;;;;23.98;14.90;;;;;;;25.68;21.20;103187.47;5064269;28;20090;-72
2022/03/21 10:04:08;;;;;;;26.80;15.50;;;;;;;27.58;19.86;103185.97;5063624;28;20033;-72
2022/03/21 10:06:40;;;;;;;27.52;15.65;;;;;;;28.55;18.47;103191.31;5030443;28;20120;-71
2022/03/21 10:09:19;;;;;;;24.35;14.57;;;;;;;27.79;19.24;103185.94;5031229;28;20033;-72
2022/03/21 10:11:49;;;;;;;23.98;13.98;;;;;;;28.35;18.72;103194.09;5030974;28;20456;-72
2022/03/21 10:14:32;;;;;;;29.67;14.88;;;;;;;27.93;19.10;103191.53;5063023;28;20024;-72
2022/03/21 10:17:15;;;;;;;24.13;14.75;;;;;;;28.15;18.51;103181.63;5031952;28;20556;-72
2022/03/21 10:19:52;;;;;;;24.05;13.90;;;;;;;28.33;18.21;103179.84;5029949;28;20029;-72
2022/03/21 10:22:33;;;;;;;21.27;14.35;;;;;;;28.25;19.03;103178.41;5030305;28;20134;-72
2022/03/21 10:25:04;;;;;;;21.63;13.30;;;;;;;28.91;17.97;103182.34;5063775;28;20037;-72
2022/03/21 10:27:34;;;;;;;23.52;13.27;;;;;;;28.73;16.99;103176.09;5062901;28;20076;-72
2022/03/21 10:30:15;;;;;;;24.27;12.82;;;;;;;28.40;17.60;103181.31;5063601;28;20052;-72
2022/03/21 10:32:42;;;;;;;21.20;12.55;;;;;;;29.76;15.58;103174.31;5030424;28;20477;-72
2022/03/21 10:35:18;;;;;;;21.00;13.15;;;;;;;29.49;14.65;103171.31;5030445;28;20032;-72
2022/03/21 10:37:56;;;;;;;22.35;12.80;;;;;;;28.82;16.61;103172.03;5031901;28;20036;-72
2022/03/21 10:40:23;;;;;;;20.00;11.93;;;;;;;27.70;17.29;103176.50;5046370;28;20053;-72
2022/03/21 10:42:55;;;;;;;19.17;11.90;;;;;;;28.41;17.42;103186.59;5062831;28;20045;-71
2022/03/21 10:45:25;;;;;;;21.23;13.13;;;;;;;28.91;16.43;103182.34;5030167;28;20025;-72
2022/03/21 10:47:52;;;;;;;19.02;10.20;;;;;;;29.06;15.27;103182.50;5029557;28;20550;-71
2022/03/21 10:50:29;;;;;;;16.98;10.52;;;;;;;28.97;14.73;103173.06;5046750;28;20043;-72
2022/03/21 10:53:18;;;;;;;16.80;10.50;;;;;;;28.63;15.93;103171.22;5031188;28;20429;-72
2022/03/21 10:55:46;;;;;;;18.17;10.60;;;;;;;27.26;17.08;103177.53;5062611;28;20030;-72
2022/03/21 10:58:13;;;;;;;21.98;10.57;;;;;;;30.51;14.93;103168.34;5062516;28;20034;-71
2022/03/21 11:00:42;;;;;;;19.77;11.75;;;;;;;29.80;15.58;103170.50;5030018;28;20079;-72
2022/03/21 11:03:14;;;;;;;19.75;11.25;;;;;;;28.61;15.72;103169.47;5061709;28;20049;-72
2022/03/21 11:05:41;;;;;;;;;;;;;;;29.39;15.10;103170.94;5031742;28;20393;-72
2022/03/21 11:08:09;;;;;;;16.45;10.07;;;;;;;28.90;15.47;103161.75;5029035;28;20348;-71
2022/03/21 11:10:34;;;;;;;19.45;10.95;;;;;;;28.23;16.03;103169.56;5045385;28;20552;-72
2022/03/21 11:13:02;;;;;;;15.65;9.98;;;;;;;28.20;15.97;103164.31;5029413;28;20017;-72
2022/03/21 11:15:30;;;;;;;16.90;10.23;;;;;;;29.20;14.87;103166.50;5029526;28;20515;-72
2022/03/21 11:17:56;;;;;;;18.13;10.85;;;;;;;28.09;16.61;103166.66;5028591;28;20025;-72
2022/03/21 11:20:22;;;;;;;17.33;10.18;;;;;;;27.81;16.31;103167.94;5061783;28;20128;-72
2022/03/21 11:22:48;;;;;;;18.92;10.95;;;;;;;28.37;15.16;103165.31;5030612;28;20112;-72
2022/03/21 11:25:16;;;;;;;21.60;9.95;;;;;;;29.60;15.53;103158.97;5029006;28;20037;-72
2022/03/21 11:28:01;;;;;;;17.38;10.27;;;;;;;29.02;15.14;103157.56;5029830;28;20061;-72
2022/03/21 11:30:41;;;;;;;16.63;9.27;;;;;;;29.78;14.28;103162.47;5061971;28;20485;-72